createdAt,value
2024-05-09T00:03:47.807Z,35.5258
2024-05-09T00:13:58.830Z,35.5050
2024-05-09T00:24:09.664Z,35.5067
2024-05-09T00:34:20.686Z,35.5064
2024-05-09T00:44:31.802Z,35.4944
2024-05-09T00:54:42.707Z,35.4833
2024-05-09T01:04:53.695Z,35.4794
2024-05-09T01:15:04.476Z,35.4772
2024-05-09T01:25:15.383Z,35.4708
2024-05-09T01:35:26.206Z,35.4578
2024-05-09T01:45:37.030Z,35.4756
2024-05-09T01:55:47.979Z,35.4208
2024-05-09T02:05:58.637Z,35.4228
2024-05-09T02:16:09.569Z,35.4258
2024-05-09T02:26:20.356Z,35.4211
2024-05-09T02:36:30.913Z,35.4000
2024-05-09T02:46:41.793Z,35.3881
2024-05-09T02:56:52.527Z,35.3853
2024-05-09T03:07:03.204Z,35.3778
2024-05-09T03:17:14.046Z,35.3747
2024-05-09T03:27:24.779Z,35.3728
2024-05-09T03:37:36.087Z,35.3644
2024-05-09T03:47:47.134Z,35.3525
2024-05-09T03:57:58.132Z,35.3503
2024-05-09T04:08:09.049Z,35.3444
2024-05-09T04:18:19.871Z,35.3369
2024-05-09T04:28:30.526Z,35.3303
2024-05-09T04:38:41.193Z,35.3250
2024-05-09T04:48:52.172Z,35.3300
2024-05-09T04:59:02.788Z,35.3311
2024-05-09T05:09:13.799Z,35.3153
2024-05-09T05:19:24.436Z,35.3192
2024-05-09T05:29:38.101Z,35.3111
2024-05-09T05:39:48.631Z,35.2983
2024-05-09T05:49:59.442Z,35.2994
2024-05-09T06:00:10.001Z,35.2467
2024-05-09T06:10:26.413Z,35.2658
2024-05-09T06:20:39.214Z,35.2525
2024-05-09T06:30:49.606Z,35.2506
2024-05-09T06:40:59.817Z,35.2469
2024-05-09T06:51:09.954Z,35.2336
2024-05-09T07:01:20.091Z,35.2344
2024-05-09T07:11:30.182Z,35.2192
2024-05-09T07:21:40.331Z,35.2094
2024-05-09T07:31:50.553Z,35.2089
2024-05-09T07:42:00.689Z,35.2061
2024-05-09T07:53:29.182Z,35.2133
2024-05-09T08:02:26.891Z,35.2192
2024-05-09T08:12:36.807Z,35.2056
2024-05-09T08:22:46.765Z,35.1889
2024-05-09T08:32:56.676Z,35.1772
2024-05-09T08:43:06.905Z,35.1708
2024-05-09T08:53:16.833Z,35.1644
2024-05-09T09:03:26.589Z,35.1583
2024-05-09T09:13:36.734Z,35.1503
2024-05-09T09:23:46.713Z,35.1383
2024-05-09T09:33:56.802Z,35.1289
2024-05-09T09:44:06.810Z,35.1264
2024-05-09T09:54:16.399Z,35.1203
2024-05-09T10:04:26.201Z,35.1061
2024-05-09T10:14:35.590Z,35.0975
2024-05-09T10:24:44.711Z,35.0858
2024-05-09T10:34:54.690Z,35.0881
2024-05-09T10:45:03.762Z,35.0908
2024-05-09T10:55:13.086Z,35.0408
2024-05-09T11:05:22.696Z,35.0464
2024-05-09T11:15:31.993Z,35.0447
2024-05-09T11:25:41.187Z,35.0156
2024-05-09T11:35:50.145Z,35.0181
2024-05-09T11:45:59.181Z,34.9747
2024-05-09T11:56:08.401Z,34.9417
2024-05-09T12:06:17.838Z,34.8847
2024-05-09T12:16:26.960Z,34.7969
2024-05-09T12:26:35.993Z,34.7361
2024-05-09T12:36:45.250Z,34.7164
2024-05-09T12:46:54.724Z,34.7039
2024-05-09T12:57:03.539Z,34.6828
2024-05-09T13:07:12.429Z,34.6589
2024-05-09T13:17:21.434Z,34.6419
2024-05-09T13:27:30.629Z,34.6133
2024-05-09T13:37:39.450Z,34.5825
2024-05-09T13:47:48.573Z,34.5428
2024-05-09T13:57:57.473Z,34.5219
2024-05-09T14:08:06.455Z,34.5083
2024-05-09T14:18:15.580Z,34.4917
2024-05-09T14:28:24.805Z,34.4872
2024-05-09T14:38:34.054Z,34.4839
2024-05-09T14:48:43.371Z,34.4678
2024-05-09T14:58:52.832Z,34.4111
2024-05-09T15:09:01.966Z,34.3267
2024-05-09T15:19:11.903Z,34.1850
2024-05-09T15:29:21.131Z,34.1558
2024-05-09T15:39:30.422Z,34.1097
2024-05-09T15:49:39.858Z,34.0867
2024-05-09T15:59:49.201Z,34.0756
2024-05-09T16:09:58.479Z,34.0636
2024-05-09T16:20:12.264Z,34.0394
2024-05-09T16:30:31.515Z,34.0264
2024-05-09T16:40:41.019Z,34.0039
2024-05-09T16:50:51.211Z,33.9847
2024-05-09T17:01:00.824Z,33.9636
2024-05-09T17:11:10.785Z,33.9394
2024-05-09T17:21:21.176Z,33.9261
2024-05-09T17:31:31.234Z,33.9072
2024-05-09T17:41:41.175Z,33.8667
2024-05-09T17:51:51.088Z,33.8311
2024-05-09T18:02:01.089Z,33.7972
2024-05-09T18:12:12.024Z,33.7867
2024-05-09T18:22:22.162Z,33.7694
2024-05-09T18:32:32.249Z,33.7575
2024-05-09T18:42:42.424Z,33.7353
2024-05-09T18:52:52.540Z,33.7161
2024-05-09T19:03:03.317Z,33.7017
2024-05-09T19:13:14.494Z,33.6922
2024-05-09T19:23:25.399Z,33.6833
2024-05-09T19:33:35.818Z,33.6747
2024-05-09T19:43:46.373Z,33.6508
2024-05-09T19:53:57.192Z,33.6367
2024-05-09T20:04:07.827Z,33.6133
2024-05-09T20:14:18.648Z,33.6003
2024-05-09T20:24:29.486Z,33.5786
2024-05-09T20:34:40.343Z,33.5633
2024-05-09T20:44:51.233Z,33.5425
2024-05-09T20:55:02.132Z,33.5169
2024-05-09T21:05:13.355Z,33.4922
2024-05-09T21:15:24.208Z,33.4767
2024-05-09T21:25:35.129Z,33.4672
2024-05-09T21:35:45.968Z,33.4589
2024-05-09T21:45:56.856Z,33.4525
2024-05-09T21:56:07.749Z,33.4422
2024-05-09T22:06:18.621Z,33.4300
2024-05-09T22:16:29.615Z,33.4083
2024-05-09T22:26:40.532Z,33.4014
2024-05-09T22:36:51.294Z,33.3911
2024-05-09T22:47:02.267Z,33.3833
2024-05-09T22:57:13.317Z,33.3772
2024-05-09T23:07:24.240Z,33.3639
2024-05-09T23:17:35.328Z,33.3611
2024-05-09T23:27:46.326Z,33.3550
2024-05-09T23:37:57.509Z,33.3439
2024-05-09T23:48:08.789Z,33.3289
2024-05-09T23:58:20.101Z,33.3197
